Time;durP1;ratioP1;P1;durP2;ratioP2;P2;SDS_P1;SDS_P2;PMS_P1;PMS_P2;Temp;Humidity;BMP_temperature;BMP_pressure;BME280_temperature;BME280_humidity;BME280_pressure;Samples;Min_cycle;Max_cycle;Signal;HPM_P1;HPM_P2
2022/06/27 00:00:47;;;;;;;1.50;0.70;;;;;;;22.57;55.51;98483.22;4953683;28;20035;-50
2022/06/27 00:03:13;;;;;;;1.85;0.80;;;;;;;22.52;55.47;98468.81;4953657;28;20449;-50
2022/06/27 00:05:39;;;;;;;5.00;0.88;;;;;;;22.50;55.47;98470.19;4953385;28;20023;-49
2022/06/27 00:08:05;;;;;;;8.57;0.98;;;;;;;22.54;55.40;98461.31;4952063;29;20516;-49
2022/06/27 00:10:31;;;;;;;3.10;1.20;;;;;;;22.53;54.72;98457.03;4953228;28;20019;-49
2022/06/27 00:12:57;;;;;;;13.02;1.35;;;;;;;22.48;55.23;98456.31;4952024;29;20037;-50
2022/06/27 00:15:23;;;;;;;4.97;0.90;;;;;;;22.46;55.21;98453.91;4953305;28;20106;-49
2022/06/27 00:17:49;;;;;;;1.20;0.65;;;;;;;22.47;55.04;98446.66;4951937;29;20038;-49
2022/06/27 00:20:15;;;;;;;6.65;0.98;;;;;;;22.46;55.35;98450.44;4951930;29;20027;-49
2022/06/27 00:22:41;;;;;;;4.05;0.90;;;;;;;22.43;55.30;98448.31;4953240;28;20114;-49
2022/06/27 00:25:08;;;;;;;10.68;1.50;;;;;;;22.39;55.66;98445.41;4951872;29;20023;-49
2022/06/27 00:27:34;;;;;;;6.70;1.67;;;;;;;22.47;55.20;98444.78;4951850;29;20027;-49
2022/06/27 00:30:00;;;;;;;2.97;1.10;;;;;;;22.53;55.04;98446.31;4955084;28;20043;-50
2022/06/27 00:32:26;;;;;;;4.70;0.90;;;;;;;22.58;55.61;98445.50;4956599;28;20020;-50
2022/06/27 00:34:53;;;;;;;2.63;1.08;;;;;;;22.69;55.07;98440.81;4956578;28;20042;-50
2022/06/27 00:37:20;;;;;;;6.47;1.17;;;;;;;22.82;54.52;98442.78;4956581;28;20366;-49
2022/06/27 00:39:45;;;;;;;7.28;1.27;;;;;;;22.91;54.16;98432.25;4955201;29;20024;-49
2022/06/27 00:42:11;;;;;;;6.65;0.90;;;;;;;22.97;53.90;98439.13;4956407;29;20030;-50
2022/06/27 00:44:40;;;;;;;6.65;1.90;;;;;;;22.97;54.16;98441.78;4956448;28;20054;-50
2022/06/27 00:47:07;;;;;;;4.28;0.82;;;;;;;23.07;53.84;98440.91;4956368;28;20023;-50
2022/06/27 00:49:34;;;;;;;2.03;0.50;;;;;;;23.01;53.53;98439.34;4956272;28;20054;-50
2022/06/27 00:52:02;;;;;;;10.10;1.00;;;;;;;22.70;53.84;98442.41;4956232;28;20027;-49
2022/06/27 00:54:29;;;;;;;2.53;0.80;;;;;;;22.52;54.67;98430.59;4956228;28;20023;-49
2022/06/27 00:56:55;;;;;;;9.45;1.02;;;;;;;22.61;54.78;98439.56;4956148;28;20027;-50
2022/06/27 00:59:21;;;;;;;4.13;0.77;;;;;;;22.74;54.82;98444.22;4956170;28;20047;-50
2022/06/27 01:01:47;;;;;;;12.80;1.85;;;;;;;22.89;54.62;98437.09;4956057;28;20520;-49
2022/06/27 01:04:13;;;;;;;16.13;1.40;;;;;;;23.02;54.37;98438.28;4956030;29;20024;-49
2022/06/27 01:06:38;;;;;;;3.35;1.90;;;;;;;23.07;53.64;98433.66;4956009;28;20028;-49
2022/06/27 01:09:04;;;;;;;4.55;0.90;;;;;;;22.94;54.04;98437.81;4955906;29;20023;-49
2022/06/27 01:11:30;;;;;;;8.25;1.15;;;;;;;22.77;54.56;98439.38;4955933;29;20062;-50
2022/06/27 01:13:59;;;;;;;2.97;0.50;;;;;;;22.73;54.64;98447.97;4955907;28;20027;-49
2022/06/27 01:16:25;;;;;;;5.72;0.77;;;;;;;22.67;54.61;98451.78;4955875;28;20051;-49
2022/06/27 01:18:51;;;;;;;6.53;0.90;;;;;;;22.57;54.72;98451.13;4955785;28;20038;-49
2022/06/27 01:21:25;;;;;;;4.00;0.88;;;;;;;22.46;55.19;98443.22;4954488;29;20117;-49
2022/06/27 01:23:52;;;;;;;3.95;0.70;;;;;;;22.37;55.55;98450.25;4955822;28;20888;-49
2022/06/27 01:26:21;;;;;;;4.32;0.85;;;;;;;22.18;55.92;98446.69;4954353;29;20074;-49
2022/06/27 01:28:46;;;;;;;1.05;0.40;;;;;;;22.14;55.92;98444.56;4955334;28;20071;-49
2022/06/27 01:31:13;;;;;;;2.30;0.70;;;;;;;22.12;56.08;98446.72;4955635;28;20019;-49
2022/06/27 01:33:39;;;;;;;2.35;0.65;;;;;;;22.16;56.31;98446.16;4955561;28;20023;-49
2022/06/27 01:38:52;;;;;;;2.45;0.60;;;;;;;22.29;56.00;98443.63;4955784;29;20041;-49
2022/06/27 01:41:18;;;;;;;3.83;0.50;;;;;;;22.31;56.00;98454.06;4955375;28;20408;-49
2022/06/27 01:43:45;;;;;;;4.18;0.65;;;;;;;22.30;55.72;98444.44;4955266;28;20019;-50
2022/06/27 01:46:12;;;;;;;2.17;0.55;;;;;;;22.21;56.10;98451.44;4955266;28;20027;-49
2022/06/27 01:48:39;;;;;;;2.53;0.63;;;;;;;22.14;56.69;98447.22;4955223;28;20019;-50
2022/06/27 01:51:09;;;;;;;6.20;1.00;;;;;;;22.14;56.56;98443.78;4953842;29;20035;-49
2022/06/27 01:53:36;;;;;;;1.20;0.70;;;;;;;22.12;56.82;98454.75;4953908;29;20086;-49
2022/06/27 01:56:03;;;;;;;6.22;0.95;;;;;;;22.13;57.00;98455.53;4953800;29;20028;-50
2022/06/27 01:58:29;;;;;;;3.72;0.60;;;;;;;22.40;56.22;98449.69;4955080;28;20078;-49
2022/06/27 02:00:55;;;;;;;3.38;0.85;;;;;;;22.44;55.80;98450.72;4954951;28;20031;-49
2022/06/27 02:03:23;;;;;;;5.18;1.08;;;;;;;22.39;56.04;98461.44;4953686;29;20032;-49
2022/06/27 02:05:51;;;;;;;5.55;0.90;;;;;;;22.37;56.17;98463.63;4954881;28;20034;-50
2022/06/27 02:08:20;;;;;;;3.17;0.73;;;;;;;22.43;56.27;98459.81;4954894;28;20028;-49
2022/06/27 02:10:46;;;;;;;6.88;0.98;;;;;;;22.35;56.11;98460.44;4969534;28;20027;-50
2022/06/27 02:13:13;;;;;;;3.90;1.15;;;;;;;22.36;56.61;98469.25;4954815;28;20371;-49
2022/06/27 02:16:01;;;;;;;5.53;1.10;;;;;;;22.23;56.76;98468.78;4953437;29;20050;-50
2022/06/27 02:18:27;;;;;;;9.45;1.13;;;;;;;22.16;56.75;98467.56;4954727;28;20493;-49
2022/06/27 02:20:54;;;;;;;5.72;1.00;;;;;;;22.25;57.01;98480.03;4954628;28;20038;-50
2022/06/27 02:23:19;;;;;;;2.08;1.05;;;;;;;22.52;56.66;98484.84;4954601;28;20019;-50
2022/06/27 02:25:45;;;;;;;5.13;1.08;;;;;;;22.59;56.33;98484.50;4954536;29;20449;-50
2022/06/27 02:28:13;;;;;;;7.38;0.85;;;;;;;22.73;56.02;98489.97;4954589;28;20134;-49
2022/06/27 02:30:38;;;;;;;9.35;1.83;;;;;;;22.78;55.74;98484.59;4953196;29;20025;-50
2022/06/27 02:33:04;;;;;;;8.27;0.90;;;;;;;22.97;55.62;98497.22;4954441;29;20019;-49
2022/06/27 02:35:31;;;;;;;2.20;0.73;;;;;;;22.99;55.38;98500.41;4954338;29;20032;-50
2022/06/27 02:37:58;;;;;;;4.18;1.00;;;;;;;23.11;55.19;98506.94;4954364;28;20102;-50
2022/06/27 02:40:25;;;;;;;2.35;0.90;;;;;;;23.07;54.76;98500.56;4954290;28;20030;-50
2022/06/27 02:42:53;;;;;;;1.98;0.95;;;;;;;22.75;55.19;98495.84;4954314;28;20845;-49
2022/06/27 02:45:19;;;;;;;3.40;0.70;;;;;;;22.56;55.89;98497.66;4954241;28;20019;-49
2022/06/27 02:47:47;;;;;;;3.58;1.10;;;;;;;22.46;56.54;98501.25;4954204;28;20073;-49
2022/06/27 02:50:13;;;;;;;2.50;0.63;;;;;;;22.35;56.89;98503.22;4952774;29;20019;-50
2022/06/27 02:52:47;;;;;;;1.10;0.70;;;;;;;22.12;57.21;98502.06;4953659;28;20034;-49
2022/06/27 02:55:15;;;;;;;4.35;0.90;;;;;;;22.17;57.36;98504.66;4954153;28;20036;-50
2022/06/27 02:57:47;;;;;;;5.03;0.77;;;;;;;22.28;57.55;98508.09;4952704;29;20027;-50
2022/06/27 03:00:14;;;;;;;7.47;1.08;;;;;;;22.38;57.33;98505.34;4954029;28;20066;-50
2022/06/27 03:02:43;;;;;;;4.20;1.08;;;;;;;22.47;57.50;98514.31;4953980;28;20027;-49
2022/06/27 03:05:09;;;;;;;9.75;1.30;;;;;;;22.71;56.84;98510.88;4952670;29;20031;-50
2022/06/27 03:07:42;;;;;;;5.55;0.88;;;;;;;22.87;56.14;98509.63;4953915;28;20159;-49
2022/06/27 03:10:12;;;;;;;7.20;0.95;;;;;;;22.89;56.09;98507.44;4952567;29;20023;-49
2022/06/27 03:12:39;;;;;;;3.08;0.70;;;;;;;22.79;56.20;98507.56;4954208;28;20032;-49
2022/06/27 03:15:05;;;;;;;3.20;0.60;;;;;;;22.64;56.44;98513.91;4953829;28;20024;-50
2022/06/27 03:17:31;;;;;;;1.42;0.65;;;;;;;22.50;56.63;98526.34;4953793;28;20576;-49
2022/06/27 03:19:57;;;;;;;2.97;0.95;;;;;;;22.46;57.08;98536.00;4953757;29;20035;-50
2022/06/27 03:22:23;;;;;;;3.92;0.68;;;;;;;22.48;56.90;98525.84;4953737;28;20115;-50
2022/06/27 03:24:49;;;;;;;5.82;0.82;;;;;;;22.44;56.73;98536.28;4953738;28;20023;-49
2022/06/27 03:27:14;;;;;;;3.95;0.80;;;;;;;22.34;56.94;98539.84;4953721;28;20592;-49
2022/06/27 03:29:40;;;;;;;3.22;0.98;;;;;;;22.12;57.83;98553.63;4952039;29;20544;-49
2022/06/27 03:32:06;;;;;;;1.20;0.70;;;;;;;22.00;58.24;98563.09;4952416;29;20401;-49
2022/06/27 03:34:33;;;;;;;3.85;1.00;;;;;;;21.99;58.31;98566.81;4952363;29;20109;-49
2022/06/27 03:36:58;;;;;;;7.93;1.00;;;;;;;21.96;58.50;98562.06;4953618;28;20075;-50
2022/06/27 03:39:25;;;;;;;6.05;0.88;;;;;;;22.04;58.52;98556.91;4952282;29;20035;-50
2022/06/27 03:41:51;;;;;;;2.83;0.82;;;;;;;22.28;58.04;98564.25;4953600;28;20041;-49
2022/06/27 03:44:17;;;;;;;3.00;0.77;;;;;;;22.29;57.85;98573.84;4952513;29;20046;-50
2022/06/27 03:46:43;;;;;;;5.65;1.23;;;;;;;22.27;57.70;98576.00;4952220;29;20023;-49
2022/06/27 03:51:54;;;;;;;3.15;0.70;;;;;;;22.00;58.02;98569.22;4953524;29;20034;-49
2022/06/27 03:54:20;;;;;;;5.80;0.90;;;;;;;21.92;58.76;98577.84;4953504;28;20038;-49
2022/06/27 03:56:46;;;;;;;2.33;0.52;;;;;;;21.84;58.96;98576.53;4953441;28;20024;-49
2022/06/27 03:59:12;;;;;;;3.35;1.02;;;;;;;21.72;59.10;98579.53;4952140;29;20031;-49
2022/06/27 04:01:38;;;;;;;2.60;0.65;;;;;;;21.64;59.52;98582.81;4952081;29;20086;-49
2022/06/27 04:04:05;;;;;;;2.75;0.93;;;;;;;21.57;59.78;98584.16;4954308;28;20023;-49
2022/06/27 04:06:31;;;;;;;3.08;0.90;;;;;;;21.50;59.90;98592.50;4957107;28;20103;-49
2022/06/27 04:08:58;;;;;;;1.98;0.80;;;;;;;21.46;60.18;98586.09;4956999;28;20031;-49
2022/06/27 04:11:23;;;;;;;5.10;1.00;;;;;;;21.47;60.24;98582.34;4957005;29;20023;-49
2022/06/27 04:13:49;;;;;;;8.65;1.33;;;;;;;21.48;60.40;98591.97;4957003;28;20027;-49
2022/06/27 04:16:15;;;;;;;4.18;1.30;;;;;;;21.53;60.06;98590.06;4956846;29;20031;-49
2022/06/27 04:18:41;;;;;;;7.90;1.40;;;;;;;21.56;59.97;98591.38;4955574;29;20035;-49
2022/06/27 04:21:06;;;;;;;5.13;1.05;;;;;;;21.53;60.31;98583.91;4956876;29;20027;-49
2022/06/27 04:23:32;;;;;;;10.95;1.27;;;;;;;21.48;60.26;98582.06;4956807;28;20498;-50
2022/06/27 04:25:58;;;;;;;5.47;1.15;;;;;;;21.55;60.36;98584.47;4957024;29;20023;-49
2022/06/27 04:28:24;;;;;;;5.15;1.42;;;;;;;21.53;60.35;98589.25;4956434;28;20501;-49
2022/06/27 04:30:52;;;;;;;5.13;1.30;;;;;;;21.28;60.46;98601.59;4956614;28;20062;-49
2022/06/27 04:33:18;;;;;;;8.43;1.33;;;;;;;21.18;61.68;98601.66;4956644;28;20401;-49
2022/06/27 04:35:46;;;;;;;13.27;2.83;;;;;;;21.59;61.42;98606.88;4956606;28;20031;-49
2022/06/27 04:38:13;;;;;;;2.80;0.80;;;;;;;21.80;60.04;98602.22;4956537;29;20102;-50
2022/06/27 04:40:39;;;;;;;4.80;0.80;;;;;;;21.84;60.00;98603.25;4956739;28;20035;-50
2022/06/27 04:43:06;;;;;;;7.55;1.55;;;;;;;21.85;59.73;98594.19;4955185;29;20524;-49
2022/06/27 04:45:33;;;;;;;21.90;2.25;;;;;;;21.84;59.65;98597.91;4956329;28;20035;-49
2022/06/27 04:48:00;;;;;;;13.88;1.55;;;;;;;21.84;59.65;98600.59;4956328;28;20070;-49
2022/06/27 04:50:26;;;;;;;5.78;1.00;;;;;;;21.86;59.79;98598.44;4956192;28;20035;-49
2022/06/27 04:52:52;;;;;;;5.07;1.02;;;;;;;21.91;59.18;98595.75;4956304;28;20039;-49
2022/06/27 04:55:20;;;;;;;8.15;1.30;;;;;;;21.93;59.85;98598.13;4956201;28;20019;-49
2022/06/27 04:57:48;;;;;;;5.90;1.40;;;;;;;21.99;59.21;98593.53;4955054;29;20020;-49
2022/06/27 05:00:15;;;;;;;9.55;1.25;;;;;;;22.01;58.99;98600.19;4956080;29;20027;-49
2022/06/27 05:02:42;;;;;;;3.67;0.80;;;;;;;21.97;59.23;98604.50;4956089;28;20528;-49
2022/06/27 05:05:08;;;;;;;5.50;1.00;;;;;;;22.04;58.99;98606.91;4956091;28;20023;-50
2022/06/27 05:07:34;;;;;;;4.10;0.90;;;;;;;22.09;58.94;98609.50;4954706;29;20182;-49
2022/06/27 05:10:00;;;;;;;5.28;1.15;;;;;;;22.21;58.78;98615.31;4955881;28;20552;-50
2022/06/27 05:12:28;;;;;;;13.00;1.30;;;;;;;22.29;58.20;98625.44;4955898;29;20043;-50
2022/06/27 05:14:55;;;;;;;5.05;0.80;;;;;;;22.31;58.18;98628.63;4954205;28;20027;-49
2022/06/27 05:17:22;;;;;;;8.18;1.17;;;;;;;22.28;58.17;98634.56;4955814;28;20027;-49
2022/06/27 05:19:48;;;;;;;8.13;1.70;;;;;;;22.29;58.12;98641.47;4955802;28;20043;-50
2022/06/27 05:22:14;;;;;;;3.70;0.77;;;;;;;22.17;58.03;98632.19;4955736;28;20051;-50
2022/06/27 05:24:40;;;;;;;10.68;1.60;;;;;;;22.14;58.58;98644.25;4954510;29;20023;-49
2022/06/27 05:27:05;;;;;;;13.65;1.77;;;;;;;22.10;59.11;98652.00;4954365;29;20031;-50
2022/06/27 05:29:32;;;;;;;5.72;0.93;;;;;;;22.19;58.67;98646.06;4955344;28;20047;-49
2022/06/27 05:31:59;;;;;;;6.75;0.98;;;;;;;22.40;58.41;98660.16;4955594;28;20058;-49
2022/06/27 05:34:25;;;;;;;8.98;1.35;;;;;;;22.31;58.55;98660.72;4954386;29;20023;-49
2022/06/27 05:36:50;;;;;;;7.38;1.15;;;;;;;22.26;58.77;98659.97;4955474;29;20029;-50
2022/06/27 05:39:16;;;;;;;6.20;1.15;;;;;;;22.38;58.83;98665.78;4955436;28;20382;-50
2022/06/27 05:41:43;;;;;;;5.47;1.00;;;;;;;22.47;58.07;98669.44;4955418;28;20500;-50
2022/06/27 05:44:09;;;;;;;9.85;1.55;;;;;;;22.57;57.90;98681.16;4955368;28;20078;-50
2022/06/27 05:46:37;;;;;;;6.35;1.08;;;;;;;22.64;57.80;98676.28;4953946;29;20024;-49
2022/06/27 05:49:03;;;;;;;5.53;0.85;;;;;;;22.63;57.59;98694.19;4955215;28;20361;-49
2022/06/27 05:51:29;;;;;;;3.60;1.00;;;;;;;22.58;57.59;98693.41;4955206;28;20050;-49
2022/06/27 05:54:00;;;;;;;3.58;0.80;;;;;;;22.53;57.62;98702.28;4955188;28;20493;-50
2022/06/27 05:56:27;;;;;;;5.45;0.98;;;;;;;22.54;57.59;98702.03;4955139;28;20070;-49
2022/06/27 05:58:55;;;;;;;7.70;1.17;;;;;;;22.68;56.81;98710.22;4955071;29;20023;-49
2022/06/27 06:01:21;;;;;;;6.97;1.35;;;;;;;22.73;56.60;98715.50;4955011;29;20110;-49
2022/06/27 06:03:48;;;;;;;4.28;1.15;;;;;;;22.70;56.54;98723.31;4954955;28;20027;-49
2022/06/27 06:06:15;;;;;;;5.03;0.70;;;;;;;22.71;56.50;98719.56;4953595;29;20034;-50
2022/06/27 06:08:43;;;;;;;7.20;1.13;;;;;;;22.77;56.49;98726.47;4954929;28;20027;-49
2022/06/27 06:11:09;;;;;;;10.02;1.70;;;;;;;22.87;56.55;98729.06;4954774;28;20042;-49
2022/06/27 06:13:36;;;;;;;10.60;1.58;;;;;;;22.94;56.09;98739.47;4954888;28;20031;-49
2022/06/27 06:16:02;;;;;;;4.55;1.23;;;;;;;22.92;56.20;98738.94;4953671;29;20559;-50
2022/06/27 06:18:30;;;;;;;1.95;0.90;;;;;;;22.85;56.43;98747.28;4954767;28;20027;-50
2022/06/27 06:20:56;;;;;;;4.70;0.95;;;;;;;22.81;56.29;98748.13;4954713;28;20019;-49
2022/06/27 06:23:21;;;;;;;2.15;0.70;;;;;;;22.87;56.38;98758.50;4954632;29;20107;-49
2022/06/27 06:25:48;;;;;;;4.72;0.90;;;;;;;22.94;55.97;98756.31;4954567;28;20023;-49
2022/06/27 06:28:13;;;;;;;5.03;0.90;;;;;;;22.99;56.05;98760.81;4953681;28;20043;-49
2022/06/27 06:30:39;;;;;;;8.93;1.13;;;;;;;22.99;55.77;98760.03;4953216;29;20082;-50
2022/06/27 06:33:05;;;;;;;6.20;1.02;;;;;;;23.02;55.74;98770.19;4954433;29;20089;-49
2022/06/27 06:35:33;;;;;;;4.68;0.93;;;;;;;23.15;55.76;98784.81;4954885;29;20023;-49
2022/06/27 06:37:58;;;;;;;8.18;0.93;;;;;;;;;;4954434;28;20283;-49
2022/06/27 06:40:25;;;;;;;4.68;0.82;;;;;;;23.22;55.10;98796.00;4954333;28;20393;-48
2022/06/27 06:42:51;;;;;;;4.65;0.80;;;;;;;23.18;55.19;98793.09;4953015;29;20035;-49
2022/06/27 06:45:17;;;;;;;4.68;1.20;;;;;;;23.19;55.18;98802.72;4954224;28;20054;-50
2022/06/27 06:47:45;;;;;;;5.82;0.82;;;;;;;23.08;55.27;98809.22;4954286;28;20058;-49
2022/06/27 06:50:18;;;;;;;2.53;0.75;;;;;;;22.98;55.92;98815.44;4952794;29;20063;-49
2022/06/27 06:52:51;;;;;;;3.42;0.88;;;;;;;22.85;56.18;98818.72;4954226;28;20097;-50
2022/06/27 06:55:24;;;;;;;6.80;1.02;;;;;;;22.82;56.31;98822.78;4954148;28;20046;-49
2022/06/27 06:57:51;;;;;;;12.18;2.15;;;;;;;22.89;56.38;98825.13;4954186;28;20449;-50
2022/06/27 07:00:19;;;;;;;5.32;1.25;;;;;;;23.04;56.10;98834.94;4952786;29;20037;-49
2022/06/27 07:02:45;;;;;;;8.45;1.00;;;;;;;22.97;56.17;98842.47;4953994;28;20054;-49
2022/06/27 07:05:16;;;;;;;4.47;1.08;;;;;;;22.83;56.45;98853.00;4953959;28;20023;-49
2022/06/27 07:07:42;;;;;;;4.05;0.68;;;;;;;22.87;56.68;98849.47;4953972;28;20110;-50
2022/06/27 07:10:11;;;;;;;3.47;0.77;;;;;;;22.91;56.52;98857.75;4952528;29;20024;-49
2022/06/27 07:12:38;;;;;;;8.45;1.15;;;;;;;22.96;56.13;98864.94;4953949;28;20482;-49
2022/06/27 07:15:09;;;;;;;8.63;1.67;;;;;;;23.04;56.35;98869.75;4953903;28;20081;-49
2022/06/27 07:17:44;;;;;;;8.65;1.30;;;;;;;23.22;55.56;98871.78;4953925;28;20509;-49
2022/06/27 07:20:10;;;;;;;;;;;;;;;;;;4954269;28;20039;-48
2022/06/27 07:22:36;;;;;;;15.10;1.63;;;;;;;22.89;55.98;98875.97;4953799;28;19914;-49
2022/06/27 07:25:02;;;;;;;14.27;1.55;;;;;;;22.65;56.79;98878.50;4953781;28;20041;-50
2022/06/27 07:27:27;;;;;;;11.23;1.75;;;;;;;22.50;57.62;98893.56;4953768;28;20388;-48
2022/06/27 07:29:54;;;;;;;7.68;1.35;;;;;;;22.57;57.23;98893.25;4953461;28;20035;-50
2022/06/27 07:32:20;;;;;;;9.98;1.40;;;;;;;22.47;56.90;98904.00;4953737;28;20052;-50
2022/06/27 07:34:47;;;;;;;5.10;1.20;;;;;;;22.31;57.29;98900.56;4952420;29;20023;-49
2022/06/27 07:37:13;;;;;;;5.93;1.23;;;;;;;22.10;57.89;98913.97;4953614;28;20533;-49
2022/06/27 07:39:40;;;;;;;7.10;1.98;;;;;;;22.04;58.35;98915.03;4957230;28;20102;-49
2022/06/27 07:42:06;;;;;;;8.73;0.93;;;;;;;22.07;58.69;98921.72;4957576;29;20058;-49
2022/06/27 07:44:34;;;;;;;5.03;1.20;;;;;;;22.14;58.44;98925.72;4956220;29;20079;-49
2022/06/27 07:47:03;;;;;;;7.13;2.22;;;;;;;22.23;58.25;98919.81;4957430;28;20031;-49
2022/06/27 07:49:30;;;;;;;3.88;1.20;;;;;;;22.28;58.51;98917.97;4957378;28;20027;-50
2022/06/27 07:51:56;;;;;;;4.03;1.30;;;;;;;22.33;58.18;98920.63;4957338;28;20031;-50
2022/06/27 07:54:23;;;;;;;5.40;1.00;;;;;;;22.42;58.39;98917.41;4957396;28;20050;-49
2022/06/27 07:56:49;;;;;;;8.70;1.10;;;;;;;22.46;58.40;98915.78;4955979;29;20027;-49
2022/06/27 07:59:15;;;;;;;11.20;1.77;;;;;;;22.37;60.20;98920.06;4957265;28;20026;-49
2022/06/27 08:01:42;;;;;;;13.57;1.42;;;;;;;22.26;62.65;98924.66;4955904;29;20045;-50
2022/06/27 08:04:08;;;;;;;10.13;1.30;;;;;;;22.02;64.07;98921.72;4957182;28;20023;-49
2022/06/27 08:06:34;;;;;;;5.43;1.40;;;;;;;21.70;65.32;98920.16;4957155;28;20034;-49
2022/06/27 08:09:05;;;;;;;9.35;1.50;;;;;;;21.39;66.84;98928.13;4957129;28;20027;-49
2022/06/27 08:11:36;;;;;;;3.83;1.38;;;;;;;21.14;66.77;98936.88;4957033;28;20024;-49
2022/06/27 08:14:06;;;;;;;13.93;1.63;;;;;;;20.93;68.06;98942.16;4957045;28;20066;-49
2022/06/27 08:16:35;;;;;;;5.68;1.67;;;;;;;20.84;68.82;98937.56;4956937;28;20501;-49
2022/06/27 08:19:01;;;;;;;3.92;1.35;;;;;;;20.79;69.25;98932.25;4956913;28;20501;-49
2022/06/27 08:21:28;;;;;;;7.38;1.55;;;;;;;20.72;69.02;98929.78;4956873;28;20102;-49
2022/06/27 08:23:59;;;;;;;7.10;1.40;;;;;;;20.66;69.63;98925.50;4956849;28;20031;-50
2022/06/27 08:26:26;;;;;;;6.00;2.03;;;;;;;20.65;69.94;98931.91;4955492;29;20023;-49
2022/06/27 08:28:53;;;;;;;4.47;1.35;;;;;;;20.71;70.73;98938.88;4956491;28;20271;-49
2022/06/27 08:31:19;;;;;;;3.53;1.13;;;;;;;20.72;70.34;98941.25;4955350;29;20027;-49
2022/06/27 08:33:47;;;;;;;10.27;1.38;;;;;;;20.75;69.96;98939.94;4956619;28;20110;-49
2022/06/27 08:36:14;;;;;;;4.25;1.25;;;;;;;20.89;69.18;98941.06;4956587;28;20031;-49
2022/06/27 08:38:50;;;;;;;7.78;1.13;;;;;;;21.03;68.52;98941.38;4956617;28;20074;-49
2022/06/27 08:41:21;;;;;;;13.13;1.92;;;;;;;21.06;67.79;98956.84;4956831;28;20058;-49
2022/06/27 08:43:58;;;;;;;2.83;1.08;;;;;;;21.07;68.09;98957.69;4956492;28;20502;-49
2022/06/27 08:46:24;;;;;;;4.40;1.00;;;;;;;21.23;67.82;98964.66;4956491;28;20106;-49
2022/06/27 08:48:51;;;;;;;2.80;0.82;;;;;;;21.42;67.44;98964.16;4955043;29;20031;-50
2022/06/27 08:51:18;;;;;;;6.57;1.25;;;;;;;21.64;66.86;98964.75;4955521;28;20027;-49
2022/06/27 08:53:45;;;;;;;1.75;0.70;;;;;;;21.81;65.56;98966.34;4956346;28;20046;-49
2022/06/27 08:56:15;;;;;;;9.63;1.73;;;;;;;21.92;65.95;98959.94;4970996;28;20394;-49
2022/06/27 08:58:43;;;;;;;5.63;0.90;;;;;;;22.08;65.49;98958.88;4956230;28;20027;-49
2022/06/27 09:01:10;;;;;;;5.63;1.13;;;;;;;22.27;65.09;98958.34;4954820;29;20038;-50
2022/06/27 09:03:36;;;;;;;3.40;0.95;;;;;;;22.50;64.81;98949.72;4956095;29;20111;-49
2022/06/27 09:06:05;;;;;;;15.80;1.42;;;;;;;22.83;64.14;98946.66;4954781;29;20544;-49
2022/06/27 09:08:36;;;;;;;13.20;1.70;;;;;;;23.24;63.23;98941.94;4956080;28;20034;-50
2022/06/27 09:11:03;;;;;;;13.02;1.10;;;;;;;23.67;61.79;98939.47;4955978;28;20386;-49
2022/06/27 09:13:30;;;;;;;8.40;1.35;;;;;;;24.12;60.89;98944.75;4956014;28;20027;-50
2022/06/27 09:16:01;;;;;;;15.23;2.95;;;;;;;24.45;58.76;98932.34;4955924;28;20023;-49
2022/06/27 09:18:30;;;;;;;8.23;1.75;;;;;;;24.78;57.91;98929.81;4955843;28;20033;-50
2022/06/27 09:20:59;;;;;;;4.22;1.25;;;;;;;25.17;56.45;98936.81;4954524;29;20036;-50
2022/06/27 09:23:28;;;;;;;4.32;1.08;;;;;;;25.40;54.92;98932.50;4955792;28;20027;-50
2022/06/27 09:26:08;;;;;;;6.65;1.02;;;;;;;25.51;55.28;98928.56;4955700;28;20020;-50
2022/06/27 09:29:01;;;;;;;7.47;1.35;;;;;;;25.84;55.25;98919.69;4955676;28;20083;-49
2022/06/27 09:31:30;;;;;;;4.00;1.10;;;;;;;26.15;52.29;98919.97;4954287;29;20023;-49
2022/06/27 09:34:33;;;;;;;3.83;1.00;;;;;;;26.48;51.18;98928.75;4955587;28;20023;-50
2022/06/27 09:37:01;;;;;;;11.02;1.75;;;;;;;26.82;49.97;98926.75;4955545;28;20023;-49
2022/06/27 09:39:36;;;;;;;15.82;2.13;;;;;;;27.23;48.61;98929.38;4955526;28;20063;-50
2022/06/27 09:42:07;;;;;;;2.78;0.50;;;;;;;27.47;46.35;98922.91;4955455;28;20229;-49
2022/06/27 09:44:40;;;;;;;7.70;0.82;;;;;;;27.52;46.10;98920.09;4955439;28;20453;-50
2022/06/27 09:47:17;;;;;;;2.92;0.75;;;;;;;27.37;45.48;98917.78;4955372;28;20034;-50
2022/06/27 09:49:47;;;;;;;4.88;0.90;;;;;;;27.15;45.91;98919.31;4955215;28;20035;-50
2022/06/27 09:52:19;;;;;;;8.88;1.30;;;;;;;27.06;46.06;98902.25;4953929;29;20028;-48
2022/06/27 09:54:47;;;;;;;2.30;0.70;;;;;;;27.06;46.31;98894.19;4955217;28;20023;-50
2022/06/27 09:57:14;;;;;;;13.80;3.95;;;;;;;27.30;46.23;98889.31;4955095;28;20505;-49
2022/06/27 09:59:41;;;;;;;2.65;0.43;;;;;;;27.94;44.52;98874.81;4953827;29;20038;-50
2022/06/27 10:02:07;;;;;;;1.85;0.63;;;;;;;28.45;42.93;98865.31;4953965;28;20023;-49
2022/06/27 10:04:37;;;;;;;6.18;1.20;;;;;;;29.00;41.83;98861.28;4955063;28;20490;-49
2022/06/27 10:07:06;;;;;;;1.13;0.50;;;;;;;29.59;40.55;98863.44;4954940;28;20035;-50
2022/06/27 10:09:35;;;;;;;11.88;2.03;;;;;;;30.52;39.44;98857.53;4953576;29;20038;-49
2022/06/27 10:12:23;;;;;;;4.25;0.93;;;;;;;31.57;36.74;98847.44;4955091;28;20030;-50
2022/06/27 10:15:10;;;;;;;5.15;0.95;;;;;;;32.01;35.13;98846.91;4953494;29;20027;-50
2022/06/27 10:17:38;;;;;;;2.47;0.82;;;;;;;32.31;34.61;98833.88;4954745;29;20038;-50
2022/06/27 10:20:26;;;;;;;4.20;0.60;;;;;;;32.65;33.57;98834.53;4954636;28;20038;-50
2022/06/27 10:23:04;;;;;;;18.40;3.30;;;;;;;32.73;32.46;98835.53;4954717;28;20572;-50
2022/06/27 10:25:30;;;;;;;7.97;1.73;;;;;;;32.47;32.71;98833.97;4953292;29;20052;-50
2022/06/27 10:28:08;;;;;;;6.65;1.67;;;;;;;32.12;32.79;98829.06;4954354;28;20028;-49
2022/06/27 10:30:46;;;;;;;7.20;0.90;;;;;;;31.67;32.46;98821.75;4953203;29;20031;-50
2022/06/27 10:33:21;;;;;;;21.48;4.80;;;;;;;31.32;33.33;98815.91;4953178;29;20043;-49
2022/06/27 10:38:22;;;;;;;2.90;1.10;;;;;;;31.48;33.03;98824.22;4954468;28;20250;-50
2022/06/27 10:40:50;;;;;;;2.60;0.50;;;;;;;31.35;33.15;98818.75;4953017;29;20536;-50
2022/06/27 10:43:41;;;;;;;3.92;0.73;;;;;;;31.47;33.49;98812.56;4954300;28;20377;-50
2022/06/27 10:46:09;;;;;;;4.60;1.25;;;;;;;31.70;32.82;98812.94;4954214;28;20402;-50
2022/06/27 10:48:36;;;;;;;1.85;1.00;;;;;;;32.04;32.53;98811.75;4954260;28;20027;-50
2022/06/27 10:51:24;;;;;;;17.65;2.45;;;;;;;31.90;32.16;98805.06;4954357;28;20027;-51
2022/06/27 10:53:52;;;;;;;11.73;2.63;;;;;;;31.98;31.67;98798.72;4954392;28;20089;-50
2022/06/27 10:56:39;;;;;;;2.65;0.70;;;;;;;31.81;31.29;98792.38;4954152;28;20020;-50
2022/06/27 10:59:28;;;;;;;1.88;0.60;;;;;;;31.34;30.86;98791.97;4954224;28;20027;-50
2022/06/27 11:01:54;;;;;;;2.08;0.65;;;;;;;30.76;32.22;98800.75;4924604;28;20110;-50
2022/06/27 11:04:31;;;;;;;2.58;0.70;;;;;;;30.91;31.84;98795.88;4952840;29;20118;-50
2022/06/27 11:06:59;;;;;;;4.97;1.02;;;;;;;30.91;32.01;98791.28;4954037;28;20027;-50
2022/06/27 11:09:41;;;;;;;5.82;1.02;;;;;;;30.98;31.85;98793.44;4953917;28;20031;-50
2022/06/27 11:12:09;;;;;;;8.05;0.98;;;;;;;31.14;31.44;98794.38;4952725;28;20031;-49
2022/06/27 11:14:50;;;;;;;1.08;0.50;;;;;;;30.81;31.40;98786.22;4953613;28;20027;-50
2022/06/27 11:17:39;;;;;;;1.60;0.80;;;;;;;30.32;32.80;98783.25;4953902;28;20031;-50
2022/06/27 11:20:12;;;;;;;9.68;1.42;;;;;;;30.64;32.45;98798.00;4953820;28;20035;-50
2022/06/27 11:22:38;;;;;;;9.50;1.80;;;;;;;30.96;32.31;98793.75;4952520;29;20031;-50
2022/06/27 11:25:04;;;;;;;3.13;0.43;;;;;;;31.05;31.32;98797.19;4953701;28;20058;-51
2022/06/27 11:27:47;;;;;;;5.47;1.13;;;;;;;30.83;32.10;98794.81;4953806;28;20035;-51
2022/06/27 11:33:10;;;;;;;5.60;1.15;;;;;;;30.84;32.35;98802.59;4953791;29;20043;-50
2022/06/27 11:35:37;;;;;;;7.35;1.08;;;;;;;30.76;32.41;98814.31;4953663;28;20060;-51
2022/06/27 11:38:05;;;;;;;1.95;0.77;;;;;;;30.56;32.40;98810.47;4936677;29;20058;-50
2022/06/27 11:40:31;;;;;;;3.97;1.27;;;;;;;30.67;33.23;98817.09;4953575;28;20041;-50
2022/06/27 11:42:57;;;;;;;13.90;1.90;;;;;;;30.72;33.22;98818.03;4953862;28;20444;-50
2022/06/27 11:45:23;;;;;;;3.72;1.25;;;;;;;30.67;33.59;98819.81;4953620;28;20523;-49
2022/06/27 11:47:49;;;;;;;2.38;1.13;;;;;;;30.73;33.62;98825.03;4952523;29;20375;-50
2022/06/27 11:50:17;;;;;;;3.78;0.85;;;;;;;30.75;33.33;98815.44;4952151;29;20485;-50